KPAE/PAE METAR and TAF weather

Enter ICAO airport designator
Station Type Date Time Source
KPAE METAR 2023/02/05 22:53 UTC NOAA

KPAE 052253Z 00000KT 6SM -RA BR SCT006 OVC019 08/06 A2993 RMK AO2 RAB29 SLP137 P0001 T00780061


Station Type Date Time Source
KPAE Decoded METAR 2023/02/05 22:53 UTC NOAA

EVERETT SNOHOMISH COUNTY, WA, United States (KPAE) 47-55N 122-17W 180M
Feb 05, 2023 - 05:53 PM EST / 2023.02.05 2253 UTC
Wind: Calm:0
Visibility: 6 mile(s):0
Sky conditions: overcast
Weather: light rain; mist
Precipitation last hour: 0.01 inches
Temperature: 46.0 F (7.8 C)
Dew Point: 43.0 F (6.1 C)
Relative Humidity: 88%
Pressure (altimeter): 29.93 in. Hg (1013 hPa)
ob: KPAE 052253Z 00000KT 6SM -RA BR SCT006 OVC019 08/06 A2993 RMK AO2 RAB29 SLP137 P0001 T00780061
cycle: 23

Station Type Date Time Source
KPAE TAF 2023/02/05 20:03 UTC NOAA

TAF
AMD KPAE 052000Z 0520/0618 23004KT P6SM -RA BKN060
TEMPO 0520/0522 BKN005
FM052200 20008KT 5SM -RA BR OVC020
FM060600 24005KT P6SM OVC050
FM061200 17007KT P6SM OVC025

Example: see airport list